Terminal Aerodrome Forecast
Issued by NWS Albany, NY

Home | Current Version | Previous Version | Text Only | Print | Product List | Glossary On
Versions: 1 2 3 4 5 6 7 8 9 10 11 12 13 14
975
FTUS41 KALY 251133
TAFPOU
TAF
KPOU 251133Z 2512/2612 VRB03KT 6SM BR VCSH SCT020 BKN100
     FM251600 01005KT 6SM BR VCSH OVC025
     FM251800 01005KT 4SM -SHRA BR SCT007 OVC020
     FM260100 02005KT P6SM BKN015 OVC030=

USA.gov is the U.S. government's official web portal to all federal, state and local government web resources and services.